createdAt,value
2023-03-29T00:00:44.720Z,88.31
2023-03-29T00:03:14.011Z,88.43
2023-03-29T00:05:42.459Z,88.30
2023-03-29T00:08:14.632Z,88.24
2023-03-29T00:10:43.190Z,87.85
2023-03-29T00:13:11.316Z,87.56
2023-03-29T00:15:39.777Z,87.19
2023-03-29T00:18:07.866Z,87.10
2023-03-29T00:20:36.265Z,87.47
2023-03-29T00:23:04.624Z,87.74
2023-03-29T00:25:34.740Z,87.88
2023-03-29T00:28:03.096Z,88.32
2023-03-29T00:30:31.377Z,87.88
2023-03-29T00:32:59.481Z,88.35
2023-03-29T00:35:27.722Z,88.26
2023-03-29T00:37:57.898Z,88.44
2023-03-29T00:40:26.857Z,88.82
2023-03-29T00:42:58.223Z,89.15
2023-03-29T00:45:30.521Z,89.00
2023-03-29T00:48:03.333Z,89.16
2023-03-29T00:50:36.483Z,88.77
2023-03-29T00:53:08.731Z,88.99
2023-03-29T00:55:40.311Z,89.18
2023-03-29T00:58:14.085Z,89.15
2023-03-29T01:00:49.949Z,89.11
2023-03-29T01:03:24.816Z,89.07
2023-03-29T01:05:58.065Z,89.12
2023-03-29T01:08:30.971Z,89.17
2023-03-29T01:11:06.806Z,89.27
2023-03-29T01:13:42.745Z,89.39
2023-03-29T01:16:13.180Z,89.59
2023-03-29T01:18:42.646Z,89.11
2023-03-29T01:21:23.664Z,89.32
2023-03-29T01:24:08.866Z,89.86
2023-03-29T01:26:46.820Z,89.92
2023-03-29T01:29:22.624Z,89.48
2023-03-29T01:31:55.911Z,89.85
2023-03-29T01:34:27.751Z,90.20
2023-03-29T01:37:02.027Z,90.41
2023-03-29T01:39:30.970Z,90.28
2023-03-29T01:42:09.244Z,90.06
2023-03-29T01:44:45.881Z,90.27
2023-03-29T01:47:20.876Z,90.06
2023-03-29T01:49:59.109Z,90.29
2023-03-29T01:52:33.374Z,90.40
2023-03-29T01:55:09.946Z,90.75
2023-03-29T01:57:42.002Z,90.49
2023-03-29T02:00:17.710Z,90.77
2023-03-29T02:02:47.433Z,90.67
2023-03-29T02:05:17.923Z,90.52
2023-03-29T02:07:48.775Z,90.27
2023-03-29T02:10:18.638Z,89.72
2023-03-29T02:12:46.841Z,89.60
2023-03-29T02:15:20.705Z,89.54
2023-03-29T02:17:51.186Z,89.54
2023-03-29T02:20:22.746Z,89.65
2023-03-29T02:22:59.806Z,89.62
2023-03-29T02:25:28.007Z,89.53
2023-03-29T02:27:57.230Z,89.12
2023-03-29T02:30:31.952Z,89.28
2023-03-29T02:33:07.929Z,89.12
2023-03-29T02:35:43.474Z,87.79
2023-03-29T02:38:12.455Z,86.83
2023-03-29T02:40:44.170Z,85.74
2023-03-29T02:43:14.265Z,84.99
2023-03-29T02:45:46.420Z,84.67
2023-03-29T02:48:19.803Z,84.00
2023-03-29T02:50:52.251Z,84.92
2023-03-29T02:53:24.696Z,85.08
2023-03-29T02:55:53.980Z,84.31
2023-03-29T02:58:28.904Z,83.10
2023-03-29T03:01:02.863Z,83.28
2023-03-29T03:03:31.876Z,84.53
2023-03-29T03:06:02.652Z,84.90
2023-03-29T03:08:32.312Z,84.61
2023-03-29T03:11:01.084Z,84.33
2023-03-29T03:13:29.608Z,84.33
2023-03-29T03:15:59.455Z,84.01
2023-03-29T03:18:27.779Z,84.82
2023-03-29T03:20:57.150Z,84.65
2023-03-29T03:23:26.237Z,84.90
2023-03-29T03:25:55.325Z,84.12
2023-03-29T03:28:25.194Z,84.48
2023-03-29T03:30:54.523Z,83.88
2023-03-29T03:33:43.231Z,84.09
2023-03-29T03:36:31.637Z,84.00
2023-03-29T03:39:00.417Z,84.19
2023-03-29T03:41:28.861Z,82.09
2023-03-29T03:43:57.433Z,81.37
2023-03-29T03:46:26.272Z,80.58
2023-03-29T03:48:59.492Z,80.80
2023-03-29T03:51:33.467Z,80.88
2023-03-29T03:54:02.044Z,81.16
2023-03-29T03:56:53.320Z,80.76
2023-03-29T03:59:50.719Z,80.83
2023-03-29T04:02:27.018Z,81.22
2023-03-29T04:04:56.811Z,81.25
2023-03-29T04:07:31.586Z,81.30
2023-03-29T04:10:28.702Z,81.89
2023-03-29T04:13:09.697Z,81.60
2023-03-29T04:16:00.151Z,80.95
2023-03-29T04:18:29.883Z,81.39
2023-03-29T04:21:02.785Z,81.83
2023-03-29T04:23:33.853Z,80.66
2023-03-29T04:26:01.917Z,79.78
2023-03-29T04:28:53.546Z,77.67
2023-03-29T04:31:28.367Z,78.06
2023-03-29T04:34:35.132Z,78.49
2023-03-29T04:37:10.604Z,77.66
2023-03-29T04:39:39.590Z,78.44
2023-03-29T04:42:09.578Z,78.88
2023-03-29T04:44:38.287Z,77.53
2023-03-29T04:47:12.025Z,76.39
2023-03-29T04:49:49.777Z,78.19
2023-03-29T04:52:27.418Z,79.46
2023-03-29T04:54:56.465Z,77.95
2023-03-29T04:57:27.239Z,77.13
2023-03-29T05:00:27.369Z,73.98
2023-03-29T05:02:55.905Z,74.79
2023-03-29T05:05:24.212Z,75.51
2023-03-29T05:07:54.999Z,75.35
2023-03-29T05:10:29.564Z,74.86
2023-03-29T05:12:58.514Z,76.04
2023-03-29T05:15:27.249Z,74.02
2023-03-29T05:17:57.231Z,74.25
2023-03-29T05:20:25.949Z,74.99
2023-03-29T05:22:56.054Z,75.66
2023-03-29T05:25:44.068Z,75.62
2023-03-29T05:28:13.601Z,72.83
2023-03-29T05:30:49.962Z,72.25
2023-03-29T05:33:22.241Z,73.59
2023-03-29T05:35:50.830Z,73.90
2023-03-29T05:38:20.446Z,71.57
2023-03-29T05:40:50.062Z,69.79
2023-03-29T05:43:47.631Z,69.58
2023-03-29T05:46:16.860Z,69.73
2023-03-29T05:48:51.715Z,69.87
2023-03-29T05:51:24.496Z,68.87
2023-03-29T05:53:57.538Z,68.61
2023-03-29T05:56:27.046Z,68.67
2023-03-29T05:58:57.007Z,69.37
2023-03-29T06:01:25.931Z,67.34
2023-03-29T06:04:03.960Z,67.69
2023-03-29T06:06:43.459Z,67.22
2023-03-29T06:09:13.719Z,65.79
2023-03-29T06:11:52.996Z,65.94
2023-03-29T06:14:43.711Z,66.94
2023-03-29T06:17:22.528Z,66.73
2023-03-29T06:19:53.229Z,66.44
2023-03-29T06:22:25.105Z,66.72
2023-03-29T06:24:55.273Z,66.05
2023-03-29T06:27:28.029Z,66.83
2023-03-29T06:29:57.775Z,66.58
2023-03-29T06:32:26.470Z,68.84
2023-03-29T06:35:02.614Z,67.76
2023-03-29T06:37:39.196Z,67.86
2023-03-29T06:40:23.033Z,68.45
2023-03-29T06:42:57.781Z,67.61
2023-03-29T06:45:36.450Z,68.78
2023-03-29T06:48:10.174Z,67.93
2023-03-29T06:50:38.685Z,68.39
2023-03-29T06:53:11.708Z,68.47
2023-03-29T06:55:43.119Z,68.73
2023-03-29T06:58:40.837Z,67.23
2023-03-29T07:01:29.727Z,64.90
2023-03-29T07:04:09.448Z,67.10
2023-03-29T07:07:02.648Z,68.71
2023-03-29T07:09:36.095Z,68.37
2023-03-29T07:12:25.019Z,69.61
2023-03-29T07:14:57.026Z,69.31
2023-03-29T07:17:30.084Z,67.56
2023-03-29T07:19:58.988Z,66.53
2023-03-29T07:22:45.858Z,60.60
2023-03-29T07:25:15.876Z,61.06
2023-03-29T07:27:47.288Z,60.27
2023-03-29T07:30:18.669Z,61.04
2023-03-29T07:32:47.552Z,60.21
2023-03-29T07:35:30.873Z,61.69
2023-03-29T07:37:59.750Z,60.30
2023-03-29T07:40:29.714Z,60.41
2023-03-29T07:42:59.920Z,62.98
2023-03-29T07:45:32.681Z,63.26
2023-03-29T07:48:05.790Z,63.12
2023-03-29T07:50:50.893Z,62.40
2023-03-29T07:53:23.211Z,60.23
2023-03-29T07:55:54.923Z,58.92
2023-03-29T07:58:43.028Z,59.43
2023-03-29T08:01:18.746Z,59.01
2023-03-29T08:04:10.731Z,60.31
2023-03-29T08:06:59.580Z,58.63
2023-03-29T08:09:43.385Z,62.21
2023-03-29T08:12:12.040Z,59.93
2023-03-29T08:14:42.096Z,59.75
2023-03-29T08:17:31.022Z,61.14
2023-03-29T08:19:59.274Z,61.64
2023-03-29T08:22:28.485Z,61.17
2023-03-29T08:25:23.304Z,63.03
2023-03-29T08:27:54.408Z,62.87
2023-03-29T08:30:33.443Z,64.05
2023-03-29T08:33:03.559Z,63.73
2023-03-29T08:35:32.397Z,63.21
2023-03-29T08:38:12.580Z,63.96
2023-03-29T08:40:41.475Z,63.51
2023-03-29T08:43:24.093Z,64.24
2023-03-29T08:46:34.236Z,64.35
2023-03-29T08:49:13.493Z,65.72
2023-03-29T08:51:47.195Z,66.42
2023-03-29T08:54:27.418Z,66.65
2023-03-29T08:57:18.113Z,67.01
2023-03-29T08:59:53.820Z,68.75
2023-03-29T09:02:27.371Z,67.78
2023-03-29T09:05:10.261Z,69.13
2023-03-29T09:07:42.789Z,70.17
2023-03-29T09:10:14.556Z,69.14
2023-03-29T09:13:01.490Z,69.64
2023-03-29T09:15:48.649Z,70.51
2023-03-29T09:18:38.040Z,69.58
2023-03-29T09:21:16.256Z,71.39
2023-03-29T09:24:04.184Z,71.53
2023-03-29T09:26:47.765Z,69.43
2023-03-29T09:29:42.373Z,70.30
2023-03-29T09:32:19.356Z,68.69
2023-03-29T09:35:00.157Z,69.03
2023-03-29T09:37:34.462Z,69.84
2023-03-29T09:40:11.411Z,69.56
2023-03-29T09:43:10.081Z,70.08
2023-03-29T09:45:40.293Z,72.20
2023-03-29T09:48:13.770Z,71.24
2023-03-29T09:50:51.408Z,72.03
2023-03-29T09:53:22.582Z,71.82
2023-03-29T09:56:03.108Z,71.24
2023-03-29T09:58:44.924Z,70.85
2023-03-29T10:01:19.165Z,70.63
2023-03-29T10:03:51.677Z,71.55
2023-03-29T10:06:25.672Z,70.39
2023-03-29T10:09:01.407Z,70.38
2023-03-29T10:11:46.749Z,70.50
2023-03-29T10:14:19.541Z,71.20
2023-03-29T10:16:48.152Z,70.70
2023-03-29T10:19:19.734Z,69.86
2023-03-29T10:21:50.443Z,71.40
2023-03-29T10:24:23.238Z,70.48
2023-03-29T10:26:55.751Z,71.36
2023-03-29T10:29:25.571Z,70.78
2023-03-29T10:31:54.409Z,71.77
2023-03-29T10:34:28.182Z,71.82
2023-03-29T10:37:01.544Z,71.40
2023-03-29T10:39:35.063Z,72.91
2023-03-29T10:42:05.512Z,73.73
2023-03-29T10:44:36.708Z,75.30
2023-03-29T10:47:16.211Z,74.48
2023-03-29T10:49:47.050Z,73.40
2023-03-29T10:52:18.338Z,73.62
2023-03-29T10:54:47.350Z,74.35
2023-03-29T10:57:22.882Z,74.92
2023-03-29T11:00:01.148Z,74.76
2023-03-29T11:02:57.409Z,76.22
2023-03-29T11:05:33.714Z,76.79
2023-03-29T11:08:20.785Z,77.72
2023-03-29T11:11:01.296Z,78.06
2023-03-29T11:13:39.014Z,79.23
2023-03-29T11:16:16.727Z,78.48
2023-03-29T11:19:15.374Z,78.31
2023-03-29T11:21:52.630Z,78.58
2023-03-29T11:24:36.659Z,78.33
2023-03-29T11:27:17.586Z,78.80
2023-03-29T11:29:57.171Z,78.23
2023-03-29T11:32:33.615Z,78.93
2023-03-29T11:35:14.769Z,78.23
2023-03-29T11:37:50.835Z,77.69
2023-03-29T11:40:36.747Z,77.68
2023-03-29T11:43:10.461Z,77.63
2023-03-29T11:45:44.409Z,76.01
2023-03-29T11:48:21.351Z,77.42
2023-03-29T11:50:54.525Z,76.78
2023-03-29T11:53:28.572Z,76.72
2023-03-29T11:56:04.933Z,77.75
2023-03-29T11:58:38.994Z,75.99
2023-03-29T12:01:11.456Z,76.16
2023-03-29T12:03:46.768Z,76.09
2023-03-29T12:06:46.047Z,76.67
2023-03-29T12:09:25.658Z,77.01
2023-03-29T12:12:03.149Z,76.83
2023-03-29T12:14:48.928Z,77.80
2023-03-29T12:17:21.753Z,77.22
2023-03-29T12:19:56.760Z,76.43
2023-03-29T12:22:25.034Z,76.92
2023-03-29T12:24:57.624Z,77.27
2023-03-29T12:27:31.093Z,76.98
2023-03-29T12:30:32.528Z,77.55
2023-03-29T12:33:46.988Z,76.66
2023-03-29T12:37:11.714Z,76.98
2023-03-29T12:39:41.093Z,75.93
2023-03-29T12:42:29.528Z,75.82
2023-03-29T12:45:21.376Z,75.82
2023-03-29T12:47:52.941Z,75.99
2023-03-29T12:50:28.712Z,75.79
2023-03-29T12:53:05.220Z,75.00
2023-03-29T12:55:36.236Z,74.75
2023-03-29T12:58:08.813Z,75.16
2023-03-29T13:00:45.787Z,74.66
2023-03-29T13:03:29.599Z,74.24
2023-03-29T13:06:02.759Z,74.07
2023-03-29T13:08:36.535Z,73.64
2023-03-29T13:11:06.423Z,74.90
2023-03-29T13:13:38.028Z,73.59
2023-03-29T13:16:15.072Z,74.28
2023-03-29T13:18:56.081Z,74.24
2023-03-29T13:21:33.478Z,73.91
2023-03-29T13:24:11.259Z,74.06
2023-03-29T13:26:51.019Z,73.85
2023-03-29T13:29:38.143Z,74.75
2023-03-29T13:32:26.015Z,74.56
2023-03-29T13:35:02.929Z,73.94
2023-03-29T13:37:42.577Z,74.11
2023-03-29T13:40:33.264Z,74.59
2023-03-29T13:43:09.334Z,74.59
2023-03-29T13:45:40.642Z,74.25
2023-03-29T13:48:23.850Z,74.69
2023-03-29T13:50:57.722Z,74.31
2023-03-29T13:53:31.023Z,74.75
2023-03-29T13:56:00.882Z,75.17
2023-03-29T13:58:39.233Z,75.70
2023-03-29T14:01:14.632Z,74.71
2023-03-29T14:03:46.539Z,75.13
2023-03-29T14:06:19.247Z,75.51
2023-03-29T14:08:49.710Z,75.00
2023-03-29T14:11:24.365Z,74.58
2023-03-29T14:13:58.886Z,74.68
2023-03-29T14:16:32.333Z,74.44
2023-03-29T14:19:04.101Z,74.08
2023-03-29T14:21:32.397Z,73.53
2023-03-29T14:24:03.628Z,73.61
2023-03-29T14:26:33.375Z,72.31
2023-03-29T14:29:03.796Z,72.38
2023-03-29T14:31:35.585Z,71.52
2023-03-29T14:34:07.270Z,71.69
2023-03-29T14:36:37.651Z,71.53
2023-03-29T14:39:13.872Z,72.69
2023-03-29T14:41:48.353Z,71.42
2023-03-29T14:44:18.855Z,71.16
2023-03-29T14:46:48.260Z,71.34
2023-03-29T14:49:19.033Z,71.62
2023-03-29T14:51:48.299Z,71.98
2023-03-29T14:54:20.956Z,72.33
2023-03-29T14:56:50.132Z,71.39
2023-03-29T14:59:27.267Z,71.87
2023-03-29T15:01:57.090Z,70.58
2023-03-29T15:04:34.094Z,70.81
2023-03-29T15:07:04.359Z,71.39
2023-03-29T15:09:35.121Z,71.05
2023-03-29T15:12:04.524Z,70.34
2023-03-29T15:14:35.522Z,69.44
2023-03-29T15:17:07.179Z,69.96
2023-03-29T15:19:37.879Z,71.32
2023-03-29T15:22:11.326Z,70.89
2023-03-29T15:24:45.607Z,71.58
2023-03-29T15:27:17.084Z,70.87
2023-03-29T15:29:48.141Z,70.44
2023-03-29T15:32:25.137Z,70.95
2023-03-29T15:35:00.923Z,67.40
2023-03-29T15:37:30.228Z,66.03
2023-03-29T15:39:59.342Z,67.95
2023-03-29T15:42:27.663Z,67.95
2023-03-29T15:44:57.666Z,68.54
2023-03-29T15:47:28.097Z,70.18
2023-03-29T15:49:57.407Z,69.63
2023-03-29T15:52:25.814Z,67.39
2023-03-29T15:54:54.207Z,65.99
2023-03-29T15:57:22.595Z,68.56
2023-03-29T15:59:50.955Z,69.40
2023-03-29T16:02:24.387Z,67.38
2023-03-29T16:04:54.488Z,67.47
2023-03-29T16:07:23.000Z,68.23
2023-03-29T16:09:51.579Z,69.77
2023-03-29T16:12:20.138Z,70.35
2023-03-29T16:14:48.349Z,70.65
2023-03-29T16:17:16.714Z,72.49
2023-03-29T16:19:45.324Z,73.17
2023-03-29T16:22:14.978Z,73.24
2023-03-29T16:24:43.833Z,73.05
2023-03-29T16:27:12.410Z,73.27
2023-03-29T16:29:40.644Z,73.83
2023-03-29T16:32:09.038Z,74.54
2023-03-29T16:34:38.173Z,74.54
2023-03-29T16:37:06.574Z,75.17
2023-03-29T16:39:38.013Z,74.26
2023-03-29T16:42:06.446Z,75.04
2023-03-29T16:44:34.767Z,74.74
2023-03-29T16:47:03.214Z,75.02
2023-03-29T16:49:40.118Z,75.06
2023-03-29T16:52:08.952Z,75.32
2023-03-29T16:54:38.808Z,75.93
2023-03-29T16:57:07.845Z,75.40
2023-03-29T16:59:37.050Z,76.07
2023-03-29T17:02:13.731Z,76.35
2023-03-29T17:04:46.617Z,76.53
2023-03-29T17:07:15.696Z,76.62
2023-03-29T17:09:46.849Z,77.11
2023-03-29T17:12:16.100Z,76.91
2023-03-29T17:15:10.137Z,77.01
2023-03-29T17:18:05.393Z,78.09
2023-03-29T17:20:34.584Z,78.74
2023-03-29T17:23:04.786Z,78.88
2023-03-29T17:25:34.602Z,78.68
2023-03-29T17:28:03.017Z,78.97
2023-03-29T17:30:31.577Z,78.68
2023-03-29T17:33:00.214Z,79.03
2023-03-29T17:35:28.447Z,79.15
2023-03-29T17:37:57.766Z,78.24
2023-03-29T17:40:27.165Z,78.27
2023-03-29T17:42:57.305Z,78.99
2023-03-29T17:45:26.498Z,78.64
2023-03-29T17:47:55.205Z,78.55
2023-03-29T17:50:23.630Z,78.59
2023-03-29T17:52:52.003Z,78.86
2023-03-29T17:55:21.134Z,78.24
2023-03-29T17:57:50.162Z,78.28
2023-03-29T18:00:29.887Z,77.97
2023-03-29T18:02:58.994Z,78.45
2023-03-29T18:05:27.786Z,78.08
2023-03-29T18:07:56.930Z,78.24
2023-03-29T18:10:25.406Z,78.12
2023-03-29T18:12:54.994Z,78.32
2023-03-29T18:15:25.040Z,78.08
2023-03-29T18:17:53.476Z,77.98
2023-03-29T18:20:22.032Z,78.36
2023-03-29T18:22:50.745Z,77.89
2023-03-29T18:25:20.180Z,78.74
2023-03-29T18:27:50.407Z,78.36
2023-03-29T18:30:18.941Z,77.91
2023-03-29T18:32:48.960Z,77.60
2023-03-29T18:35:17.226Z,77.96
2023-03-29T18:37:46.557Z,77.67
2023-03-29T18:40:15.656Z,77.63
2023-03-29T18:42:44.082Z,78.25
2023-03-29T18:45:13.631Z,77.52
2023-03-29T18:47:42.004Z,78.09
2023-03-29T18:50:13.562Z,78.08
2023-03-29T18:52:42.089Z,78.24
2023-03-29T18:55:10.798Z,78.17
2023-03-29T18:57:38.906Z,77.79
2023-03-29T19:00:12.793Z,77.95
2023-03-29T19:02:41.975Z,77.75
2023-03-29T19:05:12.138Z,78.09
2023-03-29T19:07:41.564Z,78.27
2023-03-29T19:10:10.607Z,78.18
2023-03-29T19:12:39.522Z,78.33
2023-03-29T19:15:34.965Z,78.36
2023-03-29T19:18:03.750Z,78.21
2023-03-29T19:20:33.313Z,78.91
2023-03-29T19:23:01.789Z,79.26
2023-03-29T19:25:30.339Z,80.02
2023-03-29T19:28:00.781Z,78.91
2023-03-29T19:30:28.917Z,80.31
2023-03-29T19:32:57.083Z,79.98
2023-03-29T19:35:25.680Z,79.05
2023-03-29T19:37:55.528Z,78.73
2023-03-29T19:40:24.110Z,78.60
2023-03-29T19:42:52.236Z,78.84
2023-03-29T19:45:21.635Z,79.08
2023-03-29T19:47:55.592Z,78.89
2023-03-29T19:50:24.314Z,79.23
2023-03-29T19:52:54.599Z,78.93
2023-03-29T19:55:25.522Z,78.38
2023-03-29T19:57:53.876Z,78.12
2023-03-29T20:00:25.126Z,77.98
2023-03-29T20:02:55.694Z,78.74
2023-03-29T20:05:24.228Z,79.35
2023-03-29T20:07:54.337Z,79.50
2023-03-29T20:10:22.471Z,79.66
2023-03-29T20:12:52.189Z,80.04
2023-03-29T20:15:20.968Z,80.45
2023-03-29T20:17:51.434Z,79.73
2023-03-29T20:20:21.320Z,80.09
2023-03-29T20:22:49.583Z,80.14
2023-03-29T20:25:18.225Z,80.89
2023-03-29T20:27:49.018Z,82.00
2023-03-29T20:30:19.100Z,81.89
2023-03-29T20:32:47.381Z,81.87
2023-03-29T20:35:15.564Z,82.12
2023-03-29T20:37:43.750Z,81.75
2023-03-29T20:40:13.067Z,81.63
2023-03-29T20:42:41.258Z,82.17
2023-03-29T20:45:18.426Z,82.69
2023-03-29T20:47:57.577Z,82.87
2023-03-29T20:50:30.356Z,83.14
2023-03-29T20:53:03.770Z,83.94
2023-03-29T20:55:33.548Z,84.32
2023-03-29T20:58:03.524Z,84.67
2023-03-29T21:00:35.518Z,83.76
2023-03-29T21:03:05.243Z,83.22
2023-03-29T21:05:35.036Z,83.00
2023-03-29T21:08:04.465Z,82.59
2023-03-29T21:10:32.989Z,82.89
2023-03-29T21:13:02.883Z,82.88
2023-03-29T21:15:32.047Z,83.13
2023-03-29T21:18:00.677Z,83.21
2023-03-29T21:20:32.307Z,82.61
